sensor_id;sensor_type;location;lat;lon;timestamp;P1;durP1;ratioP1;P2;durP2;ratioP2
38399;SDS011;24180;42.676;23.320;2023-01-23T00:01:06;10.00;;;7.40;;
38399;SDS011;24180;42.676;23.320;2023-01-23T00:03:35;8.50;;;7.40;;
38399;SDS011;24180;42.676;23.320;2023-01-23T00:06:01;9.57;;;7.27;;
38399;SDS011;24180;42.676;23.320;2023-01-23T00:08:33;9.90;;;7.60;;
38399;SDS011;24180;42.676;23.320;2023-01-23T00:11:02;9.67;;;6.80;;
38399;SDS011;24180;42.676;23.320;2023-01-23T00:13:32;9.10;;;7.50;;
38399;SDS011;24180;42.676;23.320;2023-01-23T00:15:58;9.77;;;7.40;;
38399;SDS011;24180;42.676;23.320;2023-01-23T00:18:23;8.43;;;7.30;;
38399;SDS011;24180;42.676;23.320;2023-01-23T00:20:49;8.27;;;6.80;;
38399;SDS011;24180;42.676;23.320;2023-01-23T00:26:05;8.67;;;7.33;;
38399;SDS011;24180;42.676;23.320;2023-01-23T00:28:32;10.83;;;6.53;;
38399;SDS011;24180;42.676;23.320;2023-01-23T00:31:05;8.77;;;7.03;;
38399;SDS011;24180;42.676;23.320;2023-01-23T00:33:32;8.40;;;6.97;;
38399;SDS011;24180;42.676;23.320;2023-01-23T00:35:58;9.53;;;6.90;;
38399;SDS011;24180;42.676;23.320;2023-01-23T00:38:24;8.70;;;7.47;;
38399;SDS011;24180;42.676;23.320;2023-01-23T00:40:50;7.37;;;6.67;;
38399;SDS011;24180;42.676;23.320;2023-01-23T00:43:15;11.57;;;7.63;;
38399;SDS011;24180;42.676;23.320;2023-01-23T00:45:41;7.80;;;7.03;;
38399;SDS011;24180;42.676;23.320;2023-01-23T00:48:07;7.53;;;6.77;;
38399;SDS011;24180;42.676;23.320;2023-01-23T00:50:32;7.83;;;6.97;;
38399;SDS011;24180;42.676;23.320;2023-01-23T00:52:58;8.93;;;7.23;;
38399;SDS011;24180;42.676;23.320;2023-01-23T00:55:23;7.90;;;7.07;;
38399;SDS011;24180;42.676;23.320;2023-01-23T00:57:49;7.50;;;6.80;;
38399;SDS011;24180;42.676;23.320;2023-01-23T01:00:14;9.20;;;7.13;;
38399;SDS011;24180;42.676;23.320;2023-01-23T01:02:40;7.70;;;6.73;;
38399;SDS011;24180;42.676;23.320;2023-01-23T01:05:06;9.20;;;7.40;;
38399;SDS011;24180;42.676;23.320;2023-01-23T01:07:31;8.17;;;7.03;;
38399;SDS011;24180;42.676;23.320;2023-01-23T01:09:57;10.40;;;7.17;;
38399;SDS011;24180;42.676;23.320;2023-01-23T01:12:22;8.27;;;6.70;;
38399;SDS011;24180;42.676;23.320;2023-01-23T01:14:48;10.03;;;6.67;;
38399;SDS011;24180;42.676;23.320;2023-01-23T01:17:13;7.63;;;6.83;;
38399;SDS011;24180;42.676;23.320;2023-01-23T01:19:39;7.60;;;6.20;;
38399;SDS011;24180;42.676;23.320;2023-01-23T01:22:04;7.17;;;6.50;;
38399;SDS011;24180;42.676;23.320;2023-01-23T01:24:29;8.00;;;6.70;;
38399;SDS011;24180;42.676;23.320;2023-01-23T01:26:55;7.30;;;6.10;;
38399;SDS011;24180;42.676;23.320;2023-01-23T01:29:20;7.57;;;6.73;;
38399;SDS011;24180;42.676;23.320;2023-01-23T01:31:46;9.93;;;6.70;;
38399;SDS011;24180;42.676;23.320;2023-01-23T01:34:11;8.43;;;6.90;;
38399;SDS011;24180;42.676;23.320;2023-01-23T01:36:38;6.87;;;6.27;;
38399;SDS011;24180;42.676;23.320;2023-01-23T01:39:03;8.43;;;6.33;;
38399;SDS011;24180;42.676;23.320;2023-01-23T01:41:29;7.77;;;6.97;;
38399;SDS011;24180;42.676;23.320;2023-01-23T01:43:55;7.40;;;6.70;;
38399;SDS011;24180;42.676;23.320;2023-01-23T01:46:28;6.33;;;5.57;;
38399;SDS011;24180;42.676;23.320;2023-01-23T01:52:08;6.30;;;5.53;;
38399;SDS011;24180;42.676;23.320;2023-01-23T01:59:49;6.63;;;5.50;;
38399;SDS011;24180;42.676;23.320;2023-01-23T02:02:18;5.53;;;5.03;;
38399;SDS011;24180;42.676;23.320;2023-01-23T02:04:49;6.57;;;5.10;;
38399;SDS011;24180;42.676;23.320;2023-01-23T02:07:31;6.53;;;5.80;;
38399;SDS011;24180;42.676;23.320;2023-01-23T02:10:00;6.10;;;5.53;;
38399;SDS011;24180;42.676;23.320;2023-01-23T02:12:29;7.13;;;6.43;;
38399;SDS011;24180;42.676;23.320;2023-01-23T02:14:55;6.40;;;5.70;;
38399;SDS011;24180;42.676;23.320;2023-01-23T02:17:21;5.90;;;4.83;;
38399;SDS011;24180;42.676;23.320;2023-01-23T02:20:10;5.90;;;5.10;;
38399;SDS011;24180;42.676;23.320;2023-01-23T02:25:27;6.93;;;4.87;;
38399;SDS011;24180;42.676;23.320;2023-01-23T02:28:01;6.17;;;5.03;;
38399;SDS011;24180;42.676;23.320;2023-01-23T02:30:26;6.53;;;5.63;;
38399;SDS011;24180;42.676;23.320;2023-01-23T02:32:52;5.37;;;4.87;;
38399;SDS011;24180;42.676;23.320;2023-01-23T02:35:25;5.97;;;5.37;;
38399;SDS011;24180;42.676;23.320;2023-01-23T02:37:55;5.80;;;5.20;;
38399;SDS011;24180;42.676;23.320;2023-01-23T02:40:34;7.47;;;5.33;;
38399;SDS011;24180;42.676;23.320;2023-01-23T02:43:04;5.43;;;4.53;;
38399;SDS011;24180;42.676;23.320;2023-01-23T02:45:31;6.53;;;5.53;;
38399;SDS011;24180;42.676;23.320;2023-01-23T02:47:57;5.63;;;5.00;;
38399;SDS011;24180;42.676;23.320;2023-01-23T02:50:23;5.83;;;5.33;;
38399;SDS011;24180;42.676;23.320;2023-01-23T02:52:49;5.33;;;4.83;;
38399;SDS011;24180;42.676;23.320;2023-01-23T02:55:18;5.30;;;4.80;;
38399;SDS011;24180;42.676;23.320;2023-01-23T02:57:44;5.57;;;4.97;;
38399;SDS011;24180;42.676;23.320;2023-01-23T03:00:10;6.40;;;5.17;;
38399;SDS011;24180;42.676;23.320;2023-01-23T03:02:40;5.97;;;4.73;;
38399;SDS011;24180;42.676;23.320;2023-01-23T03:05:05;4.70;;;4.30;;
38399;SDS011;24180;42.676;23.320;2023-01-23T03:07:31;6.23;;;4.80;;
38399;SDS011;24180;42.676;23.320;2023-01-23T03:09:56;5.00;;;4.50;;
38399;SDS011;24180;42.676;23.320;2023-01-23T03:12:22;5.27;;;4.53;;
38399;SDS011;24180;42.676;23.320;2023-01-23T03:14:47;4.90;;;4.47;;
38399;SDS011;24180;42.676;23.320;2023-01-23T03:17:17;4.43;;;4.07;;
38399;SDS011;24180;42.676;23.320;2023-01-23T03:19:43;4.07;;;3.77;;
38399;SDS011;24180;42.676;23.320;2023-01-23T03:22:08;4.97;;;4.00;;
38399;SDS011;24180;42.676;23.320;2023-01-23T03:24:34;5.67;;;4.50;;
38399;SDS011;24180;42.676;23.320;2023-01-23T03:26:59;4.50;;;4.10;;
38399;SDS011;24180;42.676;23.320;2023-01-23T03:29:25;4.70;;;4.30;;
38399;SDS011;24180;42.676;23.320;2023-01-23T03:32:09;6.47;;;4.63;;
38399;SDS011;24180;42.676;23.320;2023-01-23T03:34:36;4.20;;;3.80;;
38399;SDS011;24180;42.676;23.320;2023-01-23T03:37:02;4.03;;;3.73;;
38399;SDS011;24180;42.676;23.320;2023-01-23T03:39:28;4.43;;;4.03;;
38399;SDS011;24180;42.676;23.320;2023-01-23T03:42:29;4.13;;;3.83;;
38399;SDS011;24180;42.676;23.320;2023-01-23T03:44:57;4.03;;;3.63;;
38399;SDS011;24180;42.676;23.320;2023-01-23T03:47:22;4.93;;;4.37;;
38399;SDS011;24180;42.676;23.320;2023-01-23T03:49:50;5.00;;;4.13;;
38399;SDS011;24180;42.676;23.320;2023-01-23T03:52:15;5.00;;;4.10;;
38399;SDS011;24180;42.676;23.320;2023-01-23T03:54:41;5.03;;;4.47;;
38399;SDS011;24180;42.676;23.320;2023-01-23T03:57:06;5.03;;;4.53;;
38399;SDS011;24180;42.676;23.320;2023-01-23T03:59:32;5.23;;;4.73;;
38399;SDS011;24180;42.676;23.320;2023-01-23T04:01:57;6.60;;;5.30;;
38399;SDS011;24180;42.676;23.320;2023-01-23T04:04:24;5.80;;;5.20;;
38399;SDS011;24180;42.676;23.320;2023-01-23T04:06:50;6.23;;;5.20;;
38399;SDS011;24180;42.676;23.320;2023-01-23T04:09:16;6.50;;;5.60;;
38399;SDS011;24180;42.676;23.320;2023-01-23T04:11:41;5.87;;;5.37;;
38399;SDS011;24180;42.676;23.320;2023-01-23T04:14:07;6.47;;;5.43;;
38399;SDS011;24180;42.676;23.320;2023-01-23T04:16:33;6.53;;;5.17;;
38399;SDS011;24180;42.676;23.320;2023-01-23T04:18:58;6.13;;;5.13;;
38399;SDS011;24180;42.676;23.320;2023-01-23T04:21:23;7.33;;;5.53;;
38399;SDS011;24180;42.676;23.320;2023-01-23T04:23:49;5.97;;;5.37;;
38399;SDS011;24180;42.676;23.320;2023-01-23T04:26:15;7.37;;;5.73;;
38399;SDS011;24180;42.676;23.320;2023-01-23T04:28:40;5.80;;;5.20;;
38399;SDS011;24180;42.676;23.320;2023-01-23T04:31:05;5.70;;;5.07;;
38399;SDS011;24180;42.676;23.320;2023-01-23T04:33:33;5.70;;;5.10;;
38399;SDS011;24180;42.676;23.320;2023-01-23T04:35:59;4.53;;;4.00;;
38399;SDS011;24180;42.676;23.320;2023-01-23T04:38:27;5.50;;;5.00;;
38399;SDS011;24180;42.676;23.320;2023-01-23T04:40:54;5.63;;;4.60;;
38399;SDS011;24180;42.676;23.320;2023-01-23T04:43:19;5.00;;;4.50;;
38399;SDS011;24180;42.676;23.320;2023-01-23T04:45:45;5.37;;;4.70;;
38399;SDS011;24180;42.676;23.320;2023-01-23T04:48:13;4.27;;;3.87;;
38399;SDS011;24180;42.676;23.320;2023-01-23T04:50:39;3.97;;;3.63;;
38399;SDS011;24180;42.676;23.320;2023-01-23T04:53:04;4.80;;;4.33;;
38399;SDS011;24180;42.676;23.320;2023-01-23T04:55:30;4.57;;;4.17;;
38399;SDS011;24180;42.676;23.320;2023-01-23T04:57:55;4.73;;;4.30;;
38399;SDS011;24180;42.676;23.320;2023-01-23T05:00:21;4.30;;;3.90;;
38399;SDS011;24180;42.676;23.320;2023-01-23T05:02:47;4.60;;;4.20;;
38399;SDS011;24180;42.676;23.320;2023-01-23T05:05:14;5.20;;;4.47;;
38399;SDS011;24180;42.676;23.320;2023-01-23T05:07:41;4.40;;;4.00;;
38399;SDS011;24180;42.676;23.320;2023-01-23T05:10:07;5.07;;;4.10;;
38399;SDS011;24180;42.676;23.320;2023-01-23T05:12:34;6.00;;;4.40;;
38399;SDS011;24180;42.676;23.320;2023-01-23T05:14:59;4.90;;;4.40;;
38399;SDS011;24180;42.676;23.320;2023-01-23T05:17:24;5.70;;;4.57;;
38399;SDS011;24180;42.676;23.320;2023-01-23T05:19:50;5.77;;;4.50;;
38399;SDS011;24180;42.676;23.320;2023-01-23T05:22:15;7.23;;;4.57;;
38399;SDS011;24180;42.676;23.320;2023-01-23T05:24:42;5.80;;;4.40;;
38399;SDS011;24180;42.676;23.320;2023-01-23T05:27:08;5.27;;;4.50;;
38399;SDS011;24180;42.676;23.320;2023-01-23T05:29:33;6.00;;;4.90;;
38399;SDS011;24180;42.676;23.320;2023-01-23T05:31:59;4.87;;;4.30;;
38399;SDS011;24180;42.676;23.320;2023-01-23T05:34:24;5.10;;;4.60;;
38399;SDS011;24180;42.676;23.320;2023-01-23T05:36:50;5.23;;;4.20;;
38399;SDS011;24180;42.676;23.320;2023-01-23T05:39:15;4.33;;;3.93;;
38399;SDS011;24180;42.676;23.320;2023-01-23T05:41:41;4.37;;;3.97;;
38399;SDS011;24180;42.676;23.320;2023-01-23T05:44:06;3.87;;;3.50;;
38399;SDS011;24180;42.676;23.320;2023-01-23T05:46:31;3.90;;;3.60;;
38399;SDS011;24180;42.676;23.320;2023-01-23T05:48:57;4.30;;;3.93;;
38399;SDS011;24180;42.676;23.320;2023-01-23T05:51:22;5.33;;;4.07;;
38399;SDS011;24180;42.676;23.320;2023-01-23T05:53:55;4.10;;;3.70;;
38399;SDS011;24180;42.676;23.320;2023-01-23T05:56:20;3.70;;;3.40;;
38399;SDS011;24180;42.676;23.320;2023-01-23T05:58:46;5.13;;;3.70;;
38399;SDS011;24180;42.676;23.320;2023-01-23T06:01:11;4.37;;;3.97;;
38399;SDS011;24180;42.676;23.320;2023-01-23T06:03:37;3.97;;;3.67;;
38399;SDS011;24180;42.676;23.320;2023-01-23T06:06:02;5.27;;;4.00;;
38399;SDS011;24180;42.676;23.320;2023-01-23T06:08:28;5.40;;;4.00;;
38399;SDS011;24180;42.676;23.320;2023-01-23T06:10:53;5.53;;;4.67;;
38399;SDS011;24180;42.676;23.320;2023-01-23T06:13:22;4.33;;;4.00;;
38399;SDS011;24180;42.676;23.320;2023-01-23T06:15:49;9.13;;;4.07;;
38399;SDS011;24180;42.676;23.320;2023-01-23T06:18:14;3.87;;;3.57;;
38399;SDS011;24180;42.676;23.320;2023-01-23T06:20:40;4.40;;;4.00;;
38399;SDS011;24180;42.676;23.320;2023-01-23T06:23:05;4.70;;;4.20;;
38399;SDS011;24180;42.676;23.320;2023-01-23T06:25:30;3.90;;;3.53;;
38399;SDS011;24180;42.676;23.320;2023-01-23T06:27:56;4.17;;;3.77;;
38399;SDS011;24180;42.676;23.320;2023-01-23T06:30:21;4.27;;;3.90;;
38399;SDS011;24180;42.676;23.320;2023-01-23T06:32:47;4.00;;;3.60;;
38399;SDS011;24180;42.676;23.320;2023-01-23T06:35:12;4.93;;;4.37;;
38399;SDS011;24180;42.676;23.320;2023-01-23T06:37:37;4.57;;;4.17;;
38399;SDS011;24180;42.676;23.320;2023-01-23T06:40:03;5.90;;;4.27;;
38399;SDS011;24180;42.676;23.320;2023-01-23T06:42:29;5.50;;;4.27;;
38399;SDS011;24180;42.676;23.320;2023-01-23T06:44:54;8.10;;;5.03;;
38399;SDS011;24180;42.676;23.320;2023-01-23T06:47:20;6.53;;;4.60;;
38399;SDS011;24180;42.676;23.320;2023-01-23T06:49:48;7.33;;;5.07;;
38399;SDS011;24180;42.676;23.320;2023-01-23T06:52:13;6.73;;;4.90;;
38399;SDS011;24180;42.676;23.320;2023-01-23T06:54:39;14.27;;;6.23;;
38399;SDS011;24180;42.676;23.320;2023-01-23T06:57:04;7.40;;;5.50;;
38399;SDS011;24180;42.676;23.320;2023-01-23T06:59:30;8.30;;;6.13;;
38399;SDS011;24180;42.676;23.320;2023-01-23T07:01:56;13.20;;;6.90;;
38399;SDS011;24180;42.676;23.320;2023-01-23T07:04:21;15.07;;;7.67;;
38399;SDS011;24180;42.676;23.320;2023-01-23T07:06:47;11.10;;;7.73;;
38399;SDS011;24180;42.676;23.320;2023-01-23T07:09:12;12.30;;;8.13;;
38399;SDS011;24180;42.676;23.320;2023-01-23T07:11:38;12.17;;;8.43;;
38399;SDS011;24180;42.676;23.320;2023-01-23T07:14:04;10.20;;;7.17;;
38399;SDS011;24180;42.676;23.320;2023-01-23T07:16:29;13.90;;;8.30;;
38399;SDS011;24180;42.676;23.320;2023-01-23T07:18:55;18.97;;;8.40;;
38399;SDS011;24180;42.676;23.320;2023-01-23T07:21:23;15.03;;;7.93;;
38399;SDS011;24180;42.676;23.320;2023-01-23T07:23:48;10.03;;;7.23;;
38399;SDS011;24180;42.676;23.320;2023-01-23T07:26:15;9.40;;;7.43;;
38399;SDS011;24180;42.676;23.320;2023-01-23T07:28:40;16.03;;;7.10;;
38399;SDS011;24180;42.676;23.320;2023-01-23T07:31:08;20.77;;;8.07;;
38399;SDS011;24180;42.676;23.320;2023-01-23T07:33:34;12.10;;;8.50;;
38399;SDS011;24180;42.676;23.320;2023-01-23T07:35:59;12.13;;;8.33;;
38399;SDS011;24180;42.676;23.320;2023-01-23T07:38:25;11.93;;;8.67;;
38399;SDS011;24180;42.676;23.320;2023-01-23T07:40:50;20.73;;;10.07;;
38399;SDS011;24180;42.676;23.320;2023-01-23T07:43:16;12.97;;;9.40;;
38399;SDS011;24180;42.676;23.320;2023-01-23T07:45:41;17.03;;;9.77;;
38399;SDS011;24180;42.676;23.320;2023-01-23T07:48:07;12.57;;;8.60;;
38399;SDS011;24180;42.676;23.320;2023-01-23T07:50:35;12.57;;;8.83;;
38399;SDS011;24180;42.676;23.320;2023-01-23T07:53:02;23.87;;;11.00;;
38399;SDS011;24180;42.676;23.320;2023-01-23T07:55:28;23.80;;;10.27;;
38399;SDS011;24180;42.676;23.320;2023-01-23T07:57:54;15.10;;;8.17;;
38399;SDS011;24180;42.676;23.320;2023-01-23T08:00:20;13.33;;;9.60;;
38399;SDS011;24180;42.676;23.320;2023-01-23T08:02:46;32.97;;;10.30;;
38399;SDS011;24180;42.676;23.320;2023-01-23T08:05:11;9.50;;;8.27;;
38399;SDS011;24180;42.676;23.320;2023-01-23T08:07:37;11.83;;;9.00;;
38399;SDS011;24180;42.676;23.320;2023-01-23T08:10:02;12.90;;;8.50;;
38399;SDS011;24180;42.676;23.320;2023-01-23T08:12:28;11.80;;;8.73;;
38399;SDS011;24180;42.676;23.320;2023-01-23T08:14:53;15.53;;;10.87;;
38399;SDS011;24180;42.676;23.320;2023-01-23T08:17:19;10.03;;;8.33;;
38399;SDS011;24180;42.676;23.320;2023-01-23T08:19:45;9.63;;;7.67;;
38399;SDS011;24180;42.676;23.320;2023-01-23T08:22:10;13.37;;;9.30;;
38399;SDS011;24180;42.676;23.320;2023-01-23T08:24:36;10.30;;;7.47;;
38399;SDS011;24180;42.676;23.320;2023-01-23T08:27:01;14.90;;;8.50;;
38399;SDS011;24180;42.676;23.320;2023-01-23T08:29:26;10.33;;;6.30;;
38399;SDS011;24180;42.676;23.320;2023-01-23T08:31:52;42.97;;;11.40;;
38399;SDS011;24180;42.676;23.320;2023-01-23T08:34:19;11.30;;;6.57;;
38399;SDS011;24180;42.676;23.320;2023-01-23T08:36:45;9.70;;;6.53;;
38399;SDS011;24180;42.676;23.320;2023-01-23T08:39:10;16.83;;;7.60;;
38399;SDS011;24180;42.676;23.320;2023-01-23T08:41:36;12.07;;;7.03;;
38399;SDS011;24180;42.676;23.320;2023-01-23T08:44:01;90.97;;;17.23;;
38399;SDS011;24180;42.676;23.320;2023-01-23T08:46:28;91.13;;;17.10;;
38399;SDS011;24180;42.676;23.320;2023-01-23T08:48:54;17.30;;;6.70;;
38399;SDS011;24180;42.676;23.320;2023-01-23T08:51:19;18.00;;;7.63;;
38399;SDS011;24180;42.676;23.320;2023-01-23T08:53:45;14.10;;;6.43;;
38399;SDS011;24180;42.676;23.320;2023-01-23T08:56:14;115.47;;;18.77;;
38399;SDS011;24180;42.676;23.320;2023-01-23T08:58:41;50.83;;;10.37;;
38399;SDS011;24180;42.676;23.320;2023-01-23T09:01:11;6.30;;;5.23;;
38399;SDS011;24180;42.676;23.320;2023-01-23T09:03:40;16.80;;;7.33;;
38399;SDS011;24180;42.676;23.320;2023-01-23T09:06:05;47.90;;;12.13;;
38399;SDS011;24180;42.676;23.320;2023-01-23T09:08:31;15.77;;;8.03;;
38399;SDS011;24180;42.676;23.320;2023-01-23T09:11:00;9.53;;;6.37;;
38399;SDS011;24180;42.676;23.320;2023-01-23T09:13:29;12.23;;;6.67;;
38399;SDS011;24180;42.676;23.320;2023-01-23T09:15:55;63.30;;;12.40;;
38399;SDS011;24180;42.676;23.320;2023-01-23T09:18:21;64.27;;;11.33;;
38399;SDS011;24180;42.676;23.320;2023-01-23T09:20:47;70.13;;;13.13;;
38399;SDS011;24180;42.676;23.320;2023-01-23T09:23:13;80.13;;;14.03;;
38399;SDS011;24180;42.676;23.320;2023-01-23T09:25:38;13.37;;;6.47;;
38399;SDS011;24180;42.676;23.320;2023-01-23T09:28:04;48.43;;;10.20;;
38399;SDS011;24180;42.676;23.320;2023-01-23T09:30:30;121.83;;;18.93;;
38399;SDS011;24180;42.676;23.320;2023-01-23T09:32:55;37.23;;;9.47;;
38399;SDS011;24180;42.676;23.320;2023-01-23T09:35:21;40.60;;;10.30;;
38399;SDS011;24180;42.676;23.320;2023-01-23T09:37:47;12.40;;;6.07;;
38399;SDS011;24180;42.676;23.320;2023-01-23T09:42:59;23.27;;;8.00;;
38399;SDS011;24180;42.676;23.320;2023-01-23T09:45:32;25.27;;;7.03;;
38399;SDS011;24180;42.676;23.320;2023-01-23T09:53:44;27.87;;;8.80;;
38399;SDS011;24180;42.676;23.320;2023-01-23T09:56:44;12.10;;;5.87;;
38399;SDS011;24180;42.676;23.320;2023-01-23T09:59:12;11.57;;;6.63;;
38399;SDS011;24180;42.676;23.320;2023-01-23T10:01:42;7.70;;;5.60;;
38399;SDS011;24180;42.676;23.320;2023-01-23T10:04:09;9.37;;;5.60;;
38399;SDS011;24180;42.676;23.320;2023-01-23T10:06:53;9.63;;;6.53;;
38399;SDS011;24180;42.676;23.320;2023-01-23T10:10:02;11.07;;;6.00;;
38399;SDS011;24180;42.676;23.320;2023-01-23T10:13:06;9.37;;;6.40;;
38399;SDS011;24180;42.676;23.320;2023-01-23T10:18:55;13.87;;;7.27;;
38399;SDS011;24180;42.676;23.320;2023-01-23T10:21:50;7.17;;;6.20;;
38399;SDS011;24180;42.676;23.320;2023-01-23T10:32:51;12.13;;;7.20;;
38399;SDS011;24180;42.676;23.320;2023-01-23T10:35:24;9.40;;;6.83;;
38399;SDS011;24180;42.676;23.320;2023-01-23T10:38:00;16.43;;;8.30;;
38399;SDS011;24180;42.676;23.320;2023-01-23T10:40:30;8.63;;;7.03;;
38399;SDS011;24180;42.676;23.320;2023-01-23T10:43:16;8.80;;;7.00;;
38399;SDS011;24180;42.676;23.320;2023-01-23T10:45:44;9.20;;;7.83;;
38399;SDS011;24180;42.676;23.320;2023-01-23T10:51:22;8.40;;;6.83;;
38399;SDS011;24180;42.676;23.320;2023-01-23T10:54:16;9.53;;;7.53;;
38399;SDS011;24180;42.676;23.320;2023-01-23T10:57:33;10.77;;;7.77;;
38399;SDS011;24180;42.676;23.320;2023-01-23T10:59:35;12.90;;;8.70;;
38399;SDS011;24180;42.676;23.320;2023-01-23T11:04:38;11.93;;;8.23;;
38399;SDS011;24180;42.676;23.320;2023-01-23T11:07:10;10.00;;;7.70;;
38399;SDS011;24180;42.676;23.320;2023-01-23T11:09:48;12.20;;;8.60;;
38399;SDS011;24180;42.676;23.320;2023-01-23T11:12:22;43.53;;;12.93;;
38399;SDS011;24180;42.676;23.320;2023-01-23T11:15:09;44.13;;;12.83;;
38399;SDS011;24180;42.676;23.320;2023-01-23T11:17:45;18.23;;;9.50;;
38399;SDS011;24180;42.676;23.320;2023-01-23T11:25:51;16.07;;;10.00;;
38399;SDS011;24180;42.676;23.320;2023-01-23T11:31:13;13.43;;;10.00;;
38399;SDS011;24180;42.676;23.320;2023-01-23T11:33:41;16.93;;;10.37;;
38399;SDS011;24180;42.676;23.320;2023-01-23T11:36:21;16.17;;;9.20;;
38399;SDS011;24180;42.676;23.320;2023-01-23T11:39:00;12.87;;;9.40;;
38399;SDS011;24180;42.676;23.320;2023-01-23T11:41:40;13.43;;;8.83;;
38399;SDS011;24180;42.676;23.320;2023-01-23T11:44:08;14.63;;;8.90;;
38399;SDS011;24180;42.676;23.320;2023-01-23T11:46:57;11.73;;;8.10;;
38399;SDS011;24180;42.676;23.320;2023-01-23T12:04:04;14.47;;;7.93;;
38399;SDS011;24180;42.676;23.320;2023-01-23T12:09:25;37.37;;;11.93;;
38399;SDS011;24180;42.676;23.320;2023-01-23T12:17:57;9.37;;;8.13;;
38399;SDS011;24180;42.676;23.320;2023-01-23T12:20:38;14.63;;;8.83;;
38399;SDS011;24180;42.676;23.320;2023-01-23T12:25:45;10.03;;;8.23;;
38399;SDS011;24180;42.676;23.320;2023-01-23T12:42:16;14.17;;;11.20;;
38399;SDS011;24180;42.676;23.320;2023-01-23T12:45:10;9.30;;;8.27;;
38399;SDS011;24180;42.676;23.320;2023-01-23T12:52:59;10.20;;;8.50;;
38399;SDS011;24180;42.676;23.320;2023-01-23T12:55:52;12.37;;;8.37;;
38399;SDS011;24180;42.676;23.320;2023-01-23T12:58:28;11.80;;;8.83;;
38399;SDS011;24180;42.676;23.320;2023-01-23T13:09:32;9.67;;;8.33;;
38399;SDS011;24180;42.676;23.320;2023-01-23T13:12:14;10.13;;;8.70;;
38399;SDS011;24180;42.676;23.320;2023-01-23T13:14:43;10.40;;;8.67;;
38399;SDS011;24180;42.676;23.320;2023-01-23T13:23:21;11.87;;;8.30;;
38399;SDS011;24180;42.676;23.320;2023-01-23T13:28:45;11.93;;;8.47;;
38399;SDS011;24180;42.676;23.320;2023-01-23T13:36:41;18.37;;;8.83;;
38399;SDS011;24180;42.676;23.320;2023-01-23T13:44:36;9.60;;;8.33;;
38399;SDS011;24180;42.676;23.320;2023-01-23T13:48:04;13.87;;;8.50;;
38399;SDS011;24180;42.676;23.320;2023-01-23T13:51:16;12.13;;;9.17;;
38399;SDS011;24180;42.676;23.320;2023-01-23T13:53:47;9.87;;;8.77;;
38399;SDS011;24180;42.676;23.320;2023-01-23T13:56:34;15.53;;;9.73;;
38399;SDS011;24180;42.676;23.320;2023-01-23T13:59:03;13.83;;;9.67;;
38399;SDS011;24180;42.676;23.320;2023-01-23T14:01:38;12.00;;;9.17;;
38399;SDS011;24180;42.676;23.320;2023-01-23T14:04:29;10.70;;;8.90;;
38399;SDS011;24180;42.676;23.320;2023-01-23T14:07:30;10.73;;;9.20;;
38399;SDS011;24180;42.676;23.320;2023-01-23T14:10:12;54.33;;;13.67;;
38399;SDS011;24180;42.676;23.320;2023-01-23T14:12:46;26.00;;;9.43;;
38399;SDS011;24180;42.676;23.320;2023-01-23T14:15:15;14.50;;;8.27;;
38399;SDS011;24180;42.676;23.320;2023-01-23T14:18:00;10.13;;;7.70;;
38399;SDS011;24180;42.676;23.320;2023-01-23T14:20:26;12.27;;;7.47;;
38399;SDS011;24180;42.676;23.320;2023-01-23T14:22:54;9.77;;;8.37;;
38399;SDS011;24180;42.676;23.320;2023-01-23T14:25:20;10.77;;;8.10;;
38399;SDS011;24180;42.676;23.320;2023-01-23T14:27:45;11.40;;;10.20;;
38399;SDS011;24180;42.676;23.320;2023-01-23T14:32:44;9.53;;;7.70;;
38399;SDS011;24180;42.676;23.320;2023-01-23T14:35:29;8.97;;;7.80;;
38399;SDS011;24180;42.676;23.320;2023-01-23T14:37:58;13.97;;;8.27;;
38399;SDS011;24180;42.676;23.320;2023-01-23T14:40:26;15.37;;;8.47;;
38399;SDS011;24180;42.676;23.320;2023-01-23T14:43:02;10.00;;;7.53;;
38399;SDS011;24180;42.676;23.320;2023-01-23T14:45:32;10.27;;;7.67;;
38399;SDS011;24180;42.676;23.320;2023-01-23T14:47:58;12.07;;;8.67;;
38399;SDS011;24180;42.676;23.320;2023-01-23T14:50:25;10.40;;;8.23;;
38399;SDS011;24180;42.676;23.320;2023-01-23T14:53:34;8.93;;;7.23;;
38399;SDS011;24180;42.676;23.320;2023-01-23T14:55:41;9.20;;;7.33;;
38399;SDS011;24180;42.676;23.320;2023-01-23T14:58:13;13.77;;;8.80;;
38399;SDS011;24180;42.676;23.320;2023-01-23T15:00:45;9.40;;;8.00;;
38399;SDS011;24180;42.676;23.320;2023-01-23T15:03:11;11.53;;;8.33;;
38399;SDS011;24180;42.676;23.320;2023-01-23T15:05:37;9.83;;;7.80;;
38399;SDS011;24180;42.676;23.320;2023-01-23T15:08:05;11.40;;;8.43;;
38399;SDS011;24180;42.676;23.320;2023-01-23T15:10:46;10.97;;;8.23;;
38399;SDS011;24180;42.676;23.320;2023-01-23T15:13:23;9.97;;;8.83;;
38399;SDS011;24180;42.676;23.320;2023-01-23T15:16:01;8.83;;;7.73;;
38399;SDS011;24180;42.676;23.320;2023-01-23T15:18:30;10.90;;;7.50;;
38399;SDS011;24180;42.676;23.320;2023-01-23T15:20:59;9.83;;;7.63;;
38399;SDS011;24180;42.676;23.320;2023-01-23T15:26:10;8.43;;;6.93;;
38399;SDS011;24180;42.676;23.320;2023-01-23T15:33:45;9.73;;;7.73;;
38399;SDS011;24180;42.676;23.320;2023-01-23T15:36:21;11.40;;;7.77;;
38399;SDS011;24180;42.676;23.320;2023-01-23T15:38:52;10.03;;;7.57;;
38399;SDS011;24180;42.676;23.320;2023-01-23T15:41:19;9.27;;;6.73;;
38399;SDS011;24180;42.676;23.320;2023-01-23T15:43:44;9.03;;;7.00;;
38399;SDS011;24180;42.676;23.320;2023-01-23T15:46:10;8.37;;;6.93;;
38399;SDS011;24180;42.676;23.320;2023-01-23T15:48:36;8.77;;;6.93;;
38399;SDS011;24180;42.676;23.320;2023-01-23T15:51:02;8.57;;;6.50;;
38399;SDS011;24180;42.676;23.320;2023-01-23T15:53:28;8.13;;;7.20;;
38399;SDS011;24180;42.676;23.320;2023-01-23T15:55:54;7.43;;;6.67;;
38399;SDS011;24180;42.676;23.320;2023-01-23T15:58:20;7.83;;;6.97;;
38399;SDS011;24180;42.676;23.320;2023-01-23T16:00:45;8.10;;;7.07;;
38399;SDS011;24180;42.676;23.320;2023-01-23T16:03:11;8.07;;;6.80;;
38399;SDS011;24180;42.676;23.320;2023-01-23T16:05:38;7.83;;;7.03;;
38399;SDS011;24180;42.676;23.320;2023-01-23T16:08:04;8.57;;;7.03;;
38399;SDS011;24180;42.676;23.320;2023-01-23T16:10:40;11.20;;;8.13;;
38399;SDS011;24180;42.676;23.320;2023-01-23T16:13:05;8.53;;;7.30;;
38399;SDS011;24180;42.676;23.320;2023-01-23T16:15:32;8.80;;;7.13;;
38399;SDS011;24180;42.676;23.320;2023-01-23T16:17:59;9.77;;;7.30;;
38399;SDS011;24180;42.676;23.320;2023-01-23T16:20:27;8.80;;;7.37;;
38399;SDS011;24180;42.676;23.320;2023-01-23T16:22:58;9.47;;;7.07;;
38399;SDS011;24180;42.676;23.320;2023-01-23T16:25:29;6.93;;;6.23;;
38399;SDS011;24180;42.676;23.320;2023-01-23T16:27:57;8.90;;;7.00;;
38399;SDS011;24180;42.676;23.320;2023-01-23T16:30:23;8.77;;;7.20;;
38399;SDS011;24180;42.676;23.320;2023-01-23T16:32:53;9.90;;;7.60;;
38399;SDS011;24180;42.676;23.320;2023-01-23T16:35:19;7.33;;;6.63;;
38399;SDS011;24180;42.676;23.320;2023-01-23T16:37:47;8.27;;;7.00;;
38399;SDS011;24180;42.676;23.320;2023-01-23T16:40:19;9.83;;;7.63;;
38399;SDS011;24180;42.676;23.320;2023-01-23T16:42:46;8.87;;;6.77;;
38399;SDS011;24180;42.676;23.320;2023-01-23T16:45:17;7.83;;;6.83;;
38399;SDS011;24180;42.676;23.320;2023-01-23T16:47:45;8.60;;;6.73;;
38399;SDS011;24180;42.676;23.320;2023-01-23T16:50:15;8.73;;;6.37;;
38399;SDS011;24180;42.676;23.320;2023-01-23T16:52:50;6.93;;;6.23;;